sensor_id;sensor_type;location;lat;lon;timestamp;pressure;altitude;pressure_sealevel;temperature;humidity
40920;BME280;26652;50.280;19.026;2023-07-30T00:00:32;97691.63;;;21.48;88.97
40920;BME280;26652;50.280;19.026;2023-07-30T00:02:53;97675.59;;;21.41;88.41
40920;BME280;26652;50.280;19.026;2023-07-30T00:04:53;97684.41;;;21.40;89.11
40920;BME280;26652;50.280;19.026;2023-07-30T00:06:55;97696.56;;;21.45;89.72
40920;BME280;26652;50.280;19.026;2023-07-30T00:08:55;97691.66;;;21.43;89.74
40920;BME280;26652;50.280;19.026;2023-07-30T00:10:57;97693.94;;;21.55;89.63
40920;BME280;26652;50.280;19.026;2023-07-30T00:12:58;97695.97;;;21.58;89.47
40920;BME280;26652;50.280;19.026;2023-07-30T00:14:59;97689.25;;;21.57;89.41
40920;BME280;26652;50.280;19.026;2023-07-30T00:16:59;97690.34;;;21.46;89.84
40920;BME280;26652;50.280;19.026;2023-07-30T00:19:00;97686.97;;;21.45;89.88
40920;BME280;26652;50.280;19.026;2023-07-30T00:21:01;97687.53;;;21.32;89.98
40920;BME280;26652;50.280;19.026;2023-07-30T00:23:02;97684.97;;;21.32;90.66
40920;BME280;26652;50.280;19.026;2023-07-30T00:25:02;97689.31;;;21.42;90.38
40920;BME280;26652;50.280;19.026;2023-07-30T00:27:04;97689.31;;;21.47;90.10
40920;BME280;26652;50.280;19.026;2023-07-30T00:29:05;97692.94;;;21.41;89.69
40920;BME280;26652;50.280;19.026;2023-07-30T00:31:05;97681.59;;;21.32;89.19
40920;BME280;26652;50.280;19.026;2023-07-30T00:33:06;97697.56;;;21.49;88.39
40920;BME280;26652;50.280;19.026;2023-07-30T00:35:07;97688.31;;;21.38;88.55
40920;BME280;26652;50.280;19.026;2023-07-30T00:37:08;97697.34;;;21.40;88.01
40920;BME280;26652;50.280;19.026;2023-07-30T00:39:09;97686.28;;;21.25;88.26
40920;BME280;26652;50.280;19.026;2023-07-30T00:41:11;97687.59;;;21.12;88.44
40920;BME280;26652;50.280;19.026;2023-07-30T00:43:12;97691.97;;;21.21;89.20
40920;BME280;26652;50.280;19.026;2023-07-30T00:45:12;97699.47;;;21.28;88.30
40920;BME280;26652;50.280;19.026;2023-07-30T00:47:13;97714.47;;;21.36;88.23
40920;BME280;26652;50.280;19.026;2023-07-30T00:49:14;97688.34;;;21.23;88.11
40920;BME280;26652;50.280;19.026;2023-07-30T00:51:15;97694.81;;;21.30;87.78
40920;BME280;26652;50.280;19.026;2023-07-30T00:53:17;97706.44;;;21.38;86.92
40920;BME280;26652;50.280;19.026;2023-07-30T00:55:21;97697.09;;;21.37;86.79
40920;BME280;26652;50.280;19.026;2023-07-30T00:57:21;97693.47;;;21.38;86.12
40920;BME280;26652;50.280;19.026;2023-07-30T00:59:23;97704.84;;;21.42;85.85
40920;BME280;26652;50.280;19.026;2023-07-30T01:01:24;97711.34;;;21.39;86.30
40920;BME280;26652;50.280;19.026;2023-07-30T01:03:25;97715.00;;;21.28;85.74
40920;BME280;26652;50.280;19.026;2023-07-30T01:05:25;97695.59;;;21.10;86.46
40920;BME280;26652;50.280;19.026;2023-07-30T01:07:26;97702.31;;;21.16;86.40
40920;BME280;26652;50.280;19.026;2023-07-30T01:09:27;97706.72;;;21.16;86.29
40920;BME280;26652;50.280;19.026;2023-07-30T01:11:28;97702.06;;;21.13;85.83
40920;BME280;26652;50.280;19.026;2023-07-30T01:13:30;97712.44;;;21.13;85.74
40920;BME280;26652;50.280;19.026;2023-07-30T01:15:32;97715.53;;;21.10;85.70
40920;BME280;26652;50.280;19.026;2023-07-30T01:17:33;97721.22;;;21.12;85.10
40920;BME280;26652;50.280;19.026;2023-07-30T01:19:34;97724.06;;;21.15;85.08
40920;BME280;26652;50.280;19.026;2023-07-30T01:21:35;97726.91;;;21.24;84.18
40920;BME280;26652;50.280;19.026;2023-07-30T01:23:36;97721.22;;;21.27;83.60
40920;BME280;26652;50.280;19.026;2023-07-30T01:25:37;97737.75;;;21.41;83.31
40920;BME280;26652;50.280;19.026;2023-07-30T01:27:40;97744.50;;;21.32;82.89
40920;BME280;26652;50.280;19.026;2023-07-30T01:30:04;97737.78;;;21.11;83.34
40920;BME280;26652;50.280;19.026;2023-07-30T01:32:08;97730.81;;;21.06;82.83
40920;BME280;26652;50.280;19.026;2023-07-30T01:34:11;97735.22;;;20.96;82.52
40920;BME280;26652;50.280;19.026;2023-07-30T01:36:15;97753.06;;;21.07;82.54
40920;BME280;26652;50.280;19.026;2023-07-30T01:38:16;97729.31;;;20.80;82.26
40920;BME280;26652;50.280;19.026;2023-07-30T01:40:17;97739.91;;;20.88;82.79
40920;BME280;26652;50.280;19.026;2023-07-30T01:42:18;97735.75;;;20.87;82.59
40920;BME280;26652;50.280;19.026;2023-07-30T01:44:19;97732.41;;;20.87;82.62
40920;BME280;26652;50.280;19.026;2023-07-30T01:46:19;97746.38;;;20.91;82.67
40920;BME280;26652;50.280;19.026;2023-07-30T01:48:20;97743.78;;;20.86;81.89
40920;BME280;26652;50.280;19.026;2023-07-30T01:50:20;97765.25;;;20.92;81.66
40920;BME280;26652;50.280;19.026;2023-07-30T01:52:21;97753.91;;;20.77;81.52
40920;BME280;26652;50.280;19.026;2023-07-30T01:54:22;97749.72;;;20.81;80.85
40920;BME280;26652;50.280;19.026;2023-07-30T01:56:23;97763.19;;;20.88;80.69
40920;BME280;26652;50.280;19.026;2023-07-30T01:58:23;97751.31;;;20.72;81.02
40920;BME280;26652;50.280;19.026;2023-07-30T02:00:24;97755.47;;;20.78;80.41
40920;BME280;26652;50.280;19.026;2023-07-30T02:02:24;97748.47;;;20.59;80.83
40920;BME280;26652;50.280;19.026;2023-07-30T02:04:25;97765.53;;;20.65;80.57
40920;BME280;26652;50.280;19.026;2023-07-30T02:06:26;97765.03;;;20.63;80.09
40920;BME280;26652;50.280;19.026;2023-07-30T02:08:27;97762.44;;;20.68;79.93
40920;BME280;26652;50.280;19.026;2023-07-30T02:10:27;97775.88;;;20.75;79.45
40920;BME280;26652;50.280;19.026;2023-07-30T02:12:28;97744.34;;;20.58;79.30
40920;BME280;26652;50.280;19.026;2023-07-30T02:14:28;97760.88;;;20.67;79.07
40920;BME280;26652;50.280;19.026;2023-07-30T02:16:29;97746.91;;;20.42;79.68
40920;BME280;26652;50.280;19.026;2023-07-30T02:18:30;97752.09;;;20.52;79.40
40920;BME280;26652;50.280;19.026;2023-07-30T02:20:30;97751.56;;;20.55;78.97
40920;BME280;26652;50.280;19.026;2023-07-30T02:22:31;97754.16;;;20.50;79.26
40920;BME280;26652;50.280;19.026;2023-07-30T02:24:32;97759.84;;;20.52;79.45
40920;BME280;26652;50.280;19.026;2023-07-30T02:26:32;97754.66;;;20.47;79.76
40920;BME280;26652;50.280;19.026;2023-07-30T02:28:33;97761.41;;;20.48;79.01
40920;BME280;26652;50.280;19.026;2023-07-30T02:30:34;97757.00;;;20.44;79.15
40920;BME280;26652;50.280;19.026;2023-07-30T02:32:34;97755.97;;;20.40;79.70
40920;BME280;26652;50.280;19.026;2023-07-30T02:34:35;97763.19;;;20.43;79.46
40920;BME280;26652;50.280;19.026;2023-07-30T02:36:36;97761.88;;;20.35;80.03
40920;BME280;26652;50.280;19.026;2023-07-30T02:38:36;97764.50;;;20.45;79.34
40920;BME280;26652;50.280;19.026;2023-07-30T02:40:37;97767.84;;;20.41;78.95
40920;BME280;26652;50.280;19.026;2023-07-30T02:42:38;97758.00;;;20.33;79.08
40920;BME280;26652;50.280;19.026;2023-07-30T02:44:39;97746.09;;;20.27;79.39
40920;BME280;26652;50.280;19.026;2023-07-30T02:46:39;97774.06;;;20.45;79.09
40920;BME280;26652;50.280;19.026;2023-07-30T02:48:40;97760.56;;;20.33;80.09
40920;BME280;26652;50.280;19.026;2023-07-30T02:50:40;97759.28;;;20.30;79.99
40920;BME280;26652;50.280;19.026;2023-07-30T02:52:41;97773.22;;;20.24;80.17
40920;BME280;26652;50.280;19.026;2023-07-30T02:54:42;97756.94;;;20.23;79.74
40920;BME280;26652;50.280;19.026;2023-07-30T02:56:43;97757.97;;;20.22;79.49
40920;BME280;26652;50.280;19.026;2023-07-30T02:58:43;97761.34;;;20.28;79.27
40920;BME280;26652;50.280;19.026;2023-07-30T03:00:44;97748.38;;;20.13;80.14
40920;BME280;26652;50.280;19.026;2023-07-30T03:02:44;97768.31;;;20.22;79.68
40920;BME280;26652;50.280;19.026;2023-07-30T03:04:45;97751.50;;;20.15;79.02
40920;BME280;26652;50.280;19.026;2023-07-30T03:06:46;97753.56;;;20.13;79.02
40920;BME280;26652;50.280;19.026;2023-07-30T03:08:47;97774.25;;;20.28;78.91
40920;BME280;26652;50.280;19.026;2023-07-30T03:10:48;97754.09;;;20.20;78.70
40920;BME280;26652;50.280;19.026;2023-07-30T03:12:48;97756.94;;;20.23;78.73
40920;BME280;26652;50.280;19.026;2023-07-30T03:14:49;97756.94;;;20.18;79.31
40920;BME280;26652;50.280;19.026;2023-07-30T03:16:50;97760.28;;;20.24;78.76
40920;BME280;26652;50.280;19.026;2023-07-30T03:18:50;97763.13;;;20.22;79.63
40920;BME280;26652;50.280;19.026;2023-07-30T03:20:51;97772.47;;;20.34;79.17
40920;BME280;26652;50.280;19.026;2023-07-30T03:22:51;97765.44;;;20.14;79.26
40920;BME280;26652;50.280;19.026;2023-07-30T03:24:52;97766.50;;;20.23;79.34
40920;BME280;26652;50.280;19.026;2023-07-30T03:26:53;97771.13;;;20.16;79.64
40920;BME280;26652;50.280;19.026;2023-07-30T03:28:54;97785.38;;;20.23;79.85
40920;BME280;26652;50.280;19.026;2023-07-30T03:30:54;97767.75;;;20.10;79.51
40920;BME280;26652;50.280;19.026;2023-07-30T03:32:55;97779.91;;;20.15;80.08
40920;BME280;26652;50.280;19.026;2023-07-30T03:34:55;97774.22;;;20.08;80.54
40920;BME280;26652;50.280;19.026;2023-07-30T03:36:56;97773.19;;;20.09;80.69
40920;BME280;26652;50.280;19.026;2023-07-30T03:38:57;97770.34;;;20.10;79.97
40920;BME280;26652;50.280;19.026;2023-07-30T03:40:58;97782.13;;;19.81;81.77
40920;BME280;26652;50.280;19.026;2023-07-30T03:42:58;97781.53;;;19.58;83.64
40920;BME280;26652;50.280;19.026;2023-07-30T03:44:59;97786.53;;;19.75;83.01
40920;BME280;26652;50.280;19.026;2023-07-30T03:46:59;97777.59;;;19.51;84.36
40920;BME280;26652;50.280;19.026;2023-07-30T03:49:00;97785.06;;;19.47;85.90
40920;BME280;26652;50.280;19.026;2023-07-30T03:51:01;97787.75;;;19.57;84.46
40920;BME280;26652;50.280;19.026;2023-07-30T03:53:03;97793.72;;;19.63;85.07
40920;BME280;26652;50.280;19.026;2023-07-30T03:55:04;97794.13;;;19.50;85.39
40920;BME280;26652;50.280;19.026;2023-07-30T03:57:04;97790.56;;;19.56;85.76
40920;BME280;26652;50.280;19.026;2023-07-30T03:59:05;97792.91;;;19.57;85.86
40920;BME280;26652;50.280;19.026;2023-07-30T04:01:06;97799.16;;;19.72;85.71
40920;BME280;26652;50.280;19.026;2023-07-30T04:03:09;97792.66;;;19.59;87.72
40920;BME280;26652;50.280;19.026;2023-07-30T04:05:10;97795.00;;;19.66;84.99
40920;BME280;26652;50.280;19.026;2023-07-30T04:07:10;97788.34;;;19.75;84.44
40920;BME280;26652;50.280;19.026;2023-07-30T04:09:11;97783.91;;;19.65;85.54
40920;BME280;26652;50.280;19.026;2023-07-30T04:11:11;97790.41;;;19.73;85.32
40920;BME280;26652;50.280;19.026;2023-07-30T04:13:13;97786.78;;;19.74;84.41
40920;BME280;26652;50.280;19.026;2023-07-30T04:15:15;97808.53;;;19.93;84.19
40920;BME280;26652;50.280;19.026;2023-07-30T04:17:16;97789.16;;;19.90;83.68
40920;BME280;26652;50.280;19.026;2023-07-30T04:19:16;97785.47;;;19.76;83.87
40920;BME280;26652;50.280;19.026;2023-07-30T04:21:17;97783.84;;;19.55;85.06
40920;BME280;26652;50.280;19.026;2023-07-30T04:23:18;97784.88;;;19.54;85.35
40920;BME280;26652;50.280;19.026;2023-07-30T04:25:18;97788.28;;;19.65;85.25
40920;BME280;26652;50.280;19.026;2023-07-30T04:27:20;97795.81;;;19.76;85.40
40920;BME280;26652;50.280;19.026;2023-07-30T04:29:21;97804.34;;;19.82;84.81
40920;BME280;26652;50.280;19.026;2023-07-30T04:31:21;97799.44;;;19.80;84.50
40920;BME280;26652;50.280;19.026;2023-07-30T04:33:22;97815.72;;;19.81;84.88
40920;BME280;26652;50.280;19.026;2023-07-30T04:35:23;97809.50;;;19.77;86.18
40920;BME280;26652;50.280;19.026;2023-07-30T04:37:23;97810.28;;;19.77;85.04
40920;BME280;26652;50.280;19.026;2023-07-30T04:39:24;97814.69;;;19.82;84.79
40920;BME280;26652;50.280;19.026;2023-07-30T04:41:25;97821.13;;;19.74;85.03
40920;BME280;26652;50.280;19.026;2023-07-30T04:43:25;97805.56;;;19.59;85.36
40920;BME280;26652;50.280;19.026;2023-07-30T04:45:26;97801.69;;;19.56;85.84
40920;BME280;26652;50.280;19.026;2023-07-30T04:47:26;97805.31;;;19.61;85.57
40920;BME280;26652;50.280;19.026;2023-07-30T04:49:27;97804.34;;;19.72;85.19
40920;BME280;26652;50.280;19.026;2023-07-30T04:51:28;97809.88;;;20.06;84.49
40920;BME280;26652;50.280;19.026;2023-07-30T04:53:29;97805.09;;;20.45;82.45
40920;BME280;26652;50.280;19.026;2023-07-30T04:55:29;97805.09;;;21.01;81.66
40920;BME280;26652;50.280;19.026;2023-07-30T04:57:30;97811.06;;;22.01;77.44
40920;BME280;26652;50.280;19.026;2023-07-30T04:59:31;97813.97;;;22.44;72.65
40920;BME280;26652;50.280;19.026;2023-07-30T05:01:34;97816.59;;;22.39;74.09
40920;BME280;26652;50.280;19.026;2023-07-30T05:03:34;97804.75;;;22.28;73.86
40920;BME280;26652;50.280;19.026;2023-07-30T05:05:35;97813.50;;;21.82;74.80
40920;BME280;26652;50.280;19.026;2023-07-30T05:07:35;97823.66;;;21.69;75.23
40920;BME280;26652;50.280;19.026;2023-07-30T05:09:36;97815.16;;;21.43;76.92
40920;BME280;26652;50.280;19.026;2023-07-30T05:11:38;97823.69;;;21.59;74.11
40920;BME280;26652;50.280;19.026;2023-07-30T05:13:39;97821.34;;;21.62;73.97
40920;BME280;26652;50.280;19.026;2023-07-30T05:15:40;97828.38;;;21.41;76.78
40920;BME280;26652;50.280;19.026;2023-07-30T05:17:40;97827.88;;;21.34;77.60
40920;BME280;26652;50.280;19.026;2023-07-30T05:19:41;97823.47;;;21.25;77.11
40920;BME280;26652;50.280;19.026;2023-07-30T05:21:42;97814.41;;;21.37;75.52
40920;BME280;26652;50.280;19.026;2023-07-30T05:23:42;97829.94;;;21.37;74.74
40920;BME280;26652;50.280;19.026;2023-07-30T05:25:43;97839.78;;;21.25;73.75
40920;BME280;26652;50.280;19.026;2023-07-30T05:27:44;97841.59;;;20.99;74.38
40920;BME280;26652;50.280;19.026;2023-07-30T05:29:44;97840.81;;;20.94;75.21
40920;BME280;26652;50.280;19.026;2023-07-30T05:31:45;97842.09;;;21.06;75.07
40920;BME280;26652;50.280;19.026;2023-07-30T05:33:46;97851.16;;;21.14;75.03
40920;BME280;26652;50.280;19.026;2023-07-30T05:35:46;97859.19;;;21.12;75.32
40920;BME280;26652;50.280;19.026;2023-07-30T05:37:48;97867.72;;;20.77;77.62
40920;BME280;26652;50.280;19.026;2023-07-30T05:39:49;97862.56;;;20.77;77.69
40920;BME280;26652;50.280;19.026;2023-07-30T05:41:49;97880.66;;;20.98;77.59
40920;BME280;26652;50.280;19.026;2023-07-30T05:43:50;97868.75;;;21.07;77.73
40920;BME280;26652;50.280;19.026;2023-07-30T05:45:51;97873.94;;;21.17;76.55
40920;BME280;26652;50.280;19.026;2023-07-30T05:47:51;97854.78;;;21.18;76.00
40920;BME280;26652;50.280;19.026;2023-07-30T05:49:52;97864.38;;;21.23;76.69
40920;BME280;26652;50.280;19.026;2023-07-30T05:51:52;97852.44;;;20.96;75.81
40920;BME280;26652;50.280;19.026;2023-07-30T05:53:53;97850.13;;;20.95;76.19
40920;BME280;26652;50.280;19.026;2023-07-30T05:55:54;97866.16;;;20.97;76.68
40920;BME280;26652;50.280;19.026;2023-07-30T05:57:55;97863.56;;;21.02;76.89
40920;BME280;26652;50.280;19.026;2023-07-30T05:59:55;97862.53;;;21.18;76.72
40920;BME280;26652;50.280;19.026;2023-07-30T06:01:56;97869.81;;;21.36;75.72
40920;BME280;26652;50.280;19.026;2023-07-30T06:03:59;97856.59;;;21.33;75.65
40920;BME280;26652;50.280;19.026;2023-07-30T06:06:01;97862.81;;;21.42;76.06
40920;BME280;26652;50.280;19.026;2023-07-30T06:08:01;97865.16;;;21.38;74.59
40920;BME280;26652;50.280;19.026;2023-07-30T06:10:03;97864.63;;;21.26;74.29
40920;BME280;26652;50.280;19.026;2023-07-30T06:12:04;97848.81;;;21.12;74.88
40920;BME280;26652;50.280;19.026;2023-07-30T06:14:05;97860.25;;;21.21;75.88
40920;BME280;26652;50.280;19.026;2023-07-30T06:16:06;97874.72;;;21.43;76.05
40920;BME280;26652;50.280;19.026;2023-07-30T06:18:07;97859.19;;;21.38;73.69
40920;BME280;26652;50.280;19.026;2023-07-30T06:20:08;97860.75;;;21.39;73.17
40920;BME280;26652;50.280;19.026;2023-07-30T06:22:09;97876.78;;;21.51;74.47
40920;BME280;26652;50.280;19.026;2023-07-30T06:24:09;97851.44;;;21.38;74.66
40920;BME280;26652;50.280;19.026;2023-07-30T06:26:10;97859.97;;;21.43;73.89
40920;BME280;26652;50.280;19.026;2023-07-30T06:28:11;97869.25;;;21.60;72.85
40920;BME280;26652;50.280;19.026;2023-07-30T06:30:11;97851.69;;;21.36;71.67
40920;BME280;26652;50.280;19.026;2023-07-30T06:32:12;97874.72;;;21.53;72.90
40920;BME280;26652;50.280;19.026;2023-07-30T06:34:13;97870.31;;;21.53;72.86
40920;BME280;26652;50.280;19.026;2023-07-30T06:36:13;97873.69;;;21.54;71.83
40920;BME280;26652;50.280;19.026;2023-07-30T06:38:14;97883.78;;;21.56;72.54
40920;BME280;26652;50.280;19.026;2023-07-30T06:40:14;97880.13;;;21.62;71.63
40920;BME280;26652;50.280;19.026;2023-07-30T06:42:15;97885.31;;;21.62;72.33
40920;BME280;26652;50.280;19.026;2023-07-30T06:44:16;97860.72;;;21.64;71.82
40920;BME280;26652;50.280;19.026;2023-07-30T06:46:17;97876.50;;;21.73;71.69
40920;BME280;26652;50.280;19.026;2023-07-30T06:48:17;97871.84;;;21.70;71.30
40920;BME280;26652;50.280;19.026;2023-07-30T06:50:18;97865.59;;;21.76;71.29
40920;BME280;26652;50.280;19.026;2023-07-30T06:52:18;97855.50;;;21.69;71.49
40920;BME280;26652;50.280;19.026;2023-07-30T06:54:20;97880.03;;;21.97;72.29
40920;BME280;26652;50.280;19.026;2023-07-30T06:56:20;97881.56;;;22.08;71.13
40920;BME280;26652;50.280;19.026;2023-07-30T06:58:21;97867.34;;;21.91;70.69
40920;BME280;26652;50.280;19.026;2023-07-30T07:00:22;97847.47;;;21.76;71.87
40920;BME280;26652;50.280;19.026;2023-07-30T07:02:23;97858.25;;;21.98;71.79
40920;BME280;26652;50.280;19.026;2023-07-30T07:04:24;97860.53;;;22.20;71.06
40920;BME280;26652;50.280;19.026;2023-07-30T07:06:24;97871.53;;;22.46;71.72
40920;BME280;26652;50.280;19.026;2023-07-30T07:08:25;97871.13;;;22.73;71.11
40920;BME280;26652;50.280;19.026;2023-07-30T07:10:27;97859.19;;;22.72;70.78
40920;BME280;26652;50.280;19.026;2023-07-30T07:12:28;97865.63;;;22.85;69.49
40920;BME280;26652;50.280;19.026;2023-07-30T07:14:29;97860.38;;;22.90;68.86
40920;BME280;26652;50.280;19.026;2023-07-30T07:16:29;97882.13;;;22.99;68.27
40920;BME280;26652;50.280;19.026;2023-07-30T07:18:30;97875.75;;;22.86;68.66
40920;BME280;26652;50.280;19.026;2023-07-30T07:20:31;97873.50;;;23.03;68.86
40920;BME280;26652;50.280;19.026;2023-07-30T07:22:31;97862.78;;;23.15;68.38
40920;BME280;26652;50.280;19.026;2023-07-30T07:24:32;97867.75;;;23.40;68.25
40920;BME280;26652;50.280;19.026;2023-07-30T07:26:33;97871.06;;;23.46;66.33
40920;BME280;26652;50.280;19.026;2023-07-30T07:28:33;97875.88;;;23.63;66.90
40920;BME280;26652;50.280;19.026;2023-07-30T07:30:35;97859.59;;;23.52;65.19
40920;BME280;26652;50.280;19.026;2023-07-30T07:32:36;97871.41;;;23.68;65.87
40920;BME280;26652;50.280;19.026;2023-07-30T07:34:39;97848.94;;;23.77;66.06
40920;BME280;26652;50.280;19.026;2023-07-30T07:36:39;97859.03;;;24.03;65.92
40920;BME280;26652;50.280;19.026;2023-07-30T07:38:40;97861.94;;;24.20;65.38
40920;BME280;26652;50.280;19.026;2023-07-30T07:40:41;97882.44;;;24.27;64.50
40920;BME280;26652;50.280;19.026;2023-07-30T07:42:41;97871.41;;;24.11;63.02
40920;BME280;26652;50.280;19.026;2023-07-30T07:44:42;97883.50;;;24.02;63.07
40920;BME280;26652;50.280;19.026;2023-07-30T07:46:46;97880.28;;;24.10;64.64
40920;BME280;26652;50.280;19.026;2023-07-30T07:48:47;97888.94;;;24.24;63.46
40920;BME280;26652;50.280;19.026;2023-07-30T07:50:48;97874.44;;;24.42;62.70
40920;BME280;26652;50.280;19.026;2023-07-30T07:52:48;97867.19;;;24.39;63.19
40920;BME280;26652;50.280;19.026;2023-07-30T07:54:49;97872.69;;;24.56;63.45
40920;BME280;26652;50.280;19.026;2023-07-30T07:56:50;97864.94;;;24.51;61.84
40920;BME280;26652;50.280;19.026;2023-07-30T07:58:50;97856.88;;;24.53;62.70
40920;BME280;26652;50.280;19.026;2023-07-30T08:00:54;97856.88;;;24.53;62.63
40920;BME280;26652;50.280;19.026;2023-07-30T08:02:56;97850.88;;;24.71;63.91
40920;BME280;26652;50.280;19.026;2023-07-30T08:04:56;97854.53;;;24.70;62.36
40920;BME280;26652;50.280;19.026;2023-07-30T08:06:57;97843.28;;;24.74;61.10
40920;BME280;26652;50.280;19.026;2023-07-30T08:09:00;97849.31;;;24.70;60.87
40920;BME280;26652;50.280;19.026;2023-07-30T08:11:08;97846.69;;;24.13;61.66
40920;BME280;26652;50.280;19.026;2023-07-30T08:13:10;97868.78;;;23.92;63.36
40920;BME280;26652;50.280;19.026;2023-07-30T08:15:11;97859.56;;;23.81;63.89
40920;BME280;26652;50.280;19.026;2023-07-30T08:17:11;97849.13;;;23.62;64.73
40920;BME280;26652;50.280;19.026;2023-07-30T08:19:12;97865.06;;;23.98;64.87
40920;BME280;26652;50.280;19.026;2023-07-30T08:21:13;97861.28;;;24.33;63.13
40920;BME280;26652;50.280;19.026;2023-07-30T08:23:14;97863.41;;;24.31;63.68
40920;BME280;26652;50.280;19.026;2023-07-30T08:25:14;97866.00;;;24.50;62.40
40920;BME280;26652;50.280;19.026;2023-07-30T08:27:15;97870.28;;;24.60;63.57
40920;BME280;26652;50.280;19.026;2023-07-30T08:29:16;97870.28;;;24.60;61.77
40920;BME280;26652;50.280;19.026;2023-07-30T08:31:16;97878.38;;;24.77;61.29
40920;BME280;26652;50.280;19.026;2023-07-30T08:33:17;97875.91;;;24.86;61.39
40920;BME280;26652;50.280;19.026;2023-07-30T08:35:18;97881.09;;;25.04;60.75
40920;BME280;26652;50.280;19.026;2023-07-30T08:37:18;97880.94;;;25.15;58.46
40920;BME280;26652;50.280;19.026;2023-07-30T08:39:19;97896.28;;;25.16;57.50
40920;BME280;26652;50.280;19.026;2023-07-30T08:41:20;97870.88;;;25.08;58.77
40920;BME280;26652;50.280;19.026;2023-07-30T08:43:20;97883.13;;;25.07;58.37
40920;BME280;26652;50.280;19.026;2023-07-30T08:45:21;97896.22;;;25.35;59.18
40920;BME280;26652;50.280;19.026;2023-07-30T08:47:22;97878.94;;;25.25;58.99
40920;BME280;26652;50.280;19.026;2023-07-30T08:49:22;97882.81;;;25.28;58.57
40920;BME280;26652;50.280;19.026;2023-07-30T08:51:24;97890.53;;;25.33;58.88
40920;BME280;26652;50.280;19.026;2023-07-30T08:53:26;97899.72;;;25.44;59.62
40920;BME280;26652;50.280;19.026;2023-07-30T08:55:27;97894.22;;;25.46;61.01
40920;BME280;26652;50.280;19.026;2023-07-30T08:57:30;97901.97;;;25.51;57.21
40920;BME280;26652;50.280;19.026;2023-07-30T08:59:37;97901.59;;;25.57;57.12
40920;BME280;26652;50.280;19.026;2023-07-30T09:01:40;97905.66;;;25.63;56.44
40920;BME280;26652;50.280;19.026;2023-07-30T09:03:43;97890.34;;;25.29;57.70
40920;BME280;26652;50.280;19.026;2023-07-30T09:05:44;97906.28;;;25.41;58.31
40920;BME280;26652;50.280;19.026;2023-07-30T09:07:44;97899.16;;;25.47;58.55
40920;BME280;26652;50.280;19.026;2023-07-30T09:09:45;97907.47;;;25.49;57.75
40920;BME280;26652;50.280;19.026;2023-07-30T09:11:52;97910.16;;;25.12;56.85
40920;BME280;26652;50.280;19.026;2023-07-30T09:13:55;97890.88;;;24.94;57.31
40920;BME280;26652;50.280;19.026;2023-07-30T09:16:08;97889.47;;;25.01;58.01
40920;BME280;26652;50.280;19.026;2023-07-30T09:18:08;97888.66;;;25.20;56.39
40920;BME280;26652;50.280;19.026;2023-07-30T09:20:09;97889.88;;;25.08;55.83
40920;BME280;26652;50.280;19.026;2023-07-30T09:22:11;97887.88;;;24.87;55.62
40920;BME280;26652;50.280;19.026;2023-07-30T09:24:11;97886.66;;;24.98;56.27
40920;BME280;26652;50.280;19.026;2023-07-30T09:26:13;97896.16;;;25.07;55.63
40920;BME280;26652;50.280;19.026;2023-07-30T09:28:14;97892.19;;;25.10;55.25
40920;BME280;26652;50.280;19.026;2023-07-30T09:30:14;97896.19;;;25.21;54.50
40920;BME280;26652;50.280;19.026;2023-07-30T09:32:34;97889.84;;;25.27;53.83
40920;BME280;26652;50.280;19.026;2023-07-30T09:34:35;97886.78;;;25.39;54.40
40920;BME280;26652;50.280;19.026;2023-07-30T09:36:35;97896.53;;;25.47;55.13
40920;BME280;26652;50.280;19.026;2023-07-30T09:38:40;97892.69;;;25.45;54.92
40920;BME280;26652;50.280;19.026;2023-07-30T09:40:42;97898.78;;;25.54;54.53
40920;BME280;26652;50.280;19.026;2023-07-30T09:42:48;97893.75;;;25.57;54.19
40920;BME280;26652;50.280;19.026;2023-07-30T09:44:49;97877.47;;;25.65;53.98
40920;BME280;26652;50.280;19.026;2023-07-30T09:46:49;97884.63;;;25.87;54.37
40920;BME280;26652;50.280;19.026;2023-07-30T09:48:50;97869.97;;;25.78;54.72
40920;BME280;26652;50.280;19.026;2023-07-30T09:50:51;97882.84;;;25.41;52.11
40920;BME280;26652;50.280;19.026;2023-07-30T09:52:54;97871.84;;;25.12;53.02
40920;BME280;26652;50.280;19.026;2023-07-30T09:54:56;97879.63;;;25.31;55.47
40920;BME280;26652;50.280;19.026;2023-07-30T09:56:58;97865.66;;;25.40;54.70
40920;BME280;26652;50.280;19.026;2023-07-30T09:58:58;97871.06;;;25.58;54.50
40920;BME280;26652;50.280;19.026;2023-07-30T10:01:00;97871.69;;;25.68;53.31
40920;BME280;26652;50.280;19.026;2023-07-30T10:03:01;97880.88;;;25.66;54.21
40920;BME280;26652;50.280;19.026;2023-07-30T10:05:08;97875.31;;;25.54;55.01
40920;BME280;26652;50.280;19.026;2023-07-30T10:07:16;97880.97;;;25.74;56.26
40920;BME280;26652;50.280;19.026;2023-07-30T10:09:20;97870.81;;;25.73;54.82
40920;BME280;26652;50.280;19.026;2023-07-30T10:11:23;97870.94;;;25.82;52.80
40920;BME280;26652;50.280;19.026;2023-07-30T10:13:25;97874.97;;;25.74;53.84
40920;BME280;26652;50.280;19.026;2023-07-30T10:15:27;97879.47;;;25.55;54.94
40920;BME280;26652;50.280;19.026;2023-07-30T10:17:28;97870.63;;;25.23;56.06
40920;BME280;26652;50.280;19.026;2023-07-30T10:19:29;97869.50;;;25.29;56.35
40920;BME280;26652;50.280;19.026;2023-07-30T10:21:32;97868.59;;;25.20;55.98
40920;BME280;26652;50.280;19.026;2023-07-30T10:23:33;97871.19;;;25.20;55.38
40920;BME280;26652;50.280;19.026;2023-07-30T10:25:49;97870.16;;;25.35;55.86
40920;BME280;26652;50.280;19.026;2023-07-30T10:27:50;97864.19;;;25.34;55.33
40920;BME280;26652;50.280;19.026;2023-07-30T10:30:11;97872.81;;;25.62;55.65
40920;BME280;26652;50.280;19.026;2023-07-30T10:32:11;97869.63;;;25.52;52.85
40920;BME280;26652;50.280;19.026;2023-07-30T10:34:12;97857.28;;;25.57;54.05